Audubon Park, New Jersey
Current Conditions -  °F | °C
As of 3:54 PM on Tuesday 25 Nov 2014 (Local Time) from KPHL Reporting Station
Overcast Overcast  
Wind Chill: 54°   Ceiling: 25000
Heat Index: 54°   Visibility: 10mi
Dew Point: 29°   Wind: 9mph
Humidity: 38%   Direction: 250°WSW
Pressure: 30.04"   Gusts: NA
Location:  39.891°N, 75.0738°W
Report Text: KPHL 252054Z 25008KT 10SM FEW075 SCT200 OVC250 12/M02 A3004 RMK AO2 SLP173 T01221017 55001 $
Loading
Personal Weather Stations






























Interactive Weather Map New forecast layout! Learn more

10-Day Weather Forecast

Advertisements
Track Severe Weather on mobile